Time;durP1;ratioP1;P1;durP2;ratioP2;P2;SDS_P1;SDS_P2;PMS_P1;PMS_P2;Temp;Humidity;BMP_temperature;BMP_pressure;BME280_temperature;BME280_humidity;BME280_pressure;Samples;Min_cycle;Max_cycle;Signal;HPM_P1;HPM_P2
2022/07/08 00:00:31;;;;;;;1.65;0.10;;;20.20;56.00;;;;;;5091225;28;20051;-72
2022/07/08 00:02:56;;;;;;;1.48;0.10;;;20.20;56.10;;;;;;5091583;28;20040;-72
2022/07/08 00:05:22;;;;;;;1.70;0.20;;;20.20;56.10;;;;;;5091319;28;20139;-72
2022/07/08 00:07:50;;;;;;;1.70;0.30;;;20.20;56.10;;;;;;5091476;28;20043;-72
2022/07/08 00:10:16;;;;;;;3.72;0.20;;;20.20;56.10;;;;;;5091014;28;20393;-71
2022/07/08 00:12:42;;;;;;;1.40;0.10;;;20.20;56.80;;;;;;5092394;28;20213;-71
2022/07/08 00:15:08;;;;;;;1.67;0.20;;;20.20;56.10;;;;;;5091043;28;20047;-72
2022/07/08 00:17:37;;;;;;;2.38;0.28;;;20.20;56.10;;;;;;5091014;28;20059;-72
2022/07/08 00:20:06;;;;;;;2.60;0.32;;;20.20;56.10;;;;;;5092234;28;20139;-72
2022/07/08 00:22:32;;;;;;;2.33;0.22;;;20.20;56.10;;;;;;5090935;28;20036;-72
2022/07/08 00:24:57;;;;;;;1.95;0.20;;;20.20;56.20;;;;;;5092089;28;20036;-71
2022/07/08 00:27:23;;;;;;;1.50;0.17;;;20.20;56.20;;;;;;5091162;28;20084;-72
2022/07/08 00:29:49;;;;;;;1.35;0.38;;;20.20;56.10;;;;;;5091444;28;20036;-71
2022/07/08 00:32:14;;;;;;;1.88;0.20;;;20.20;56.20;;;;;;5090908;28;20032;-72
2022/07/08 00:34:40;;;;;;;2.03;0.30;;;20.20;56.20;;;;;;5091145;28;20379;-72
2022/07/08 00:37:06;;;;;;;1.30;0.20;;;20.20;56.20;;;;;;5091021;28;20540;-71
2022/07/08 00:39:32;;;;;;;1.42;0.30;;;20.10;56.10;;;;;;5090801;28;20048;-71
2022/07/08 00:41:58;;;;;;;1.25;0.20;;;20.20;56.20;;;;;;5090530;28;20032;-72
2022/07/08 00:44:24;;;;;;;2.58;0.20;;;20.20;56.20;;;;;;5091018;28;20040;-73
2022/07/08 00:46:53;;;;;;;2.67;0.20;;;20.20;56.20;;;;;;5090259;28;20048;-72
2022/07/08 00:49:19;;;;;;;4.03;0.30;;;20.10;56.20;;;;;;5090703;28;20032;-71
2022/07/08 00:51:46;;;;;;;1.02;0.30;;;20.20;56.20;;;;;;5091883;28;20048;-71
2022/07/08 00:54:16;;;;;;;1.92;0.47;;;20.10;56.20;;;;;;5090925;28;20369;-72
2022/07/08 00:56:42;;;;;;;1.20;0.20;;;20.10;56.20;;;;;;5091970;28;20039;-71
2022/07/08 00:59:09;;;;;;;1.73;0.20;;;20.10;56.20;;;;;;5091873;28;20040;-70
2022/07/08 01:01:35;;;;;;;1.75;0.30;;;20.10;56.30;;;;;;5090465;28;20044;-72
2022/07/08 01:04:01;;;;;;;1.05;0.20;;;20.10;56.20;;;;;;5090595;28;20048;-72
2022/07/08 01:06:27;;;;;;;1.85;0.75;;;20.10;56.30;;;;;;5090437;28;20040;-72
2022/07/08 01:08:53;;;;;;;0.98;0.20;;;20.10;56.30;;;;;;5090869;28;20090;-72
2022/07/08 01:11:19;;;;;;;1.65;0.20;;;20.10;56.30;;;;;;5090640;28;20040;-70
2022/07/08 01:13:46;;;;;;;1.58;0.20;;;20.10;56.40;;;;;;5091818;28;20044;-71
2022/07/08 01:16:12;;;;;;;1.92;0.22;;;20.10;56.30;;;;;;5090594;28;20043;-72
2022/07/08 01:18:42;;;;;;;2.50;0.30;;;20.10;56.30;;;;;;5090691;28;20044;-70
2022/07/08 01:21:08;;;;;;;;;;;20.10;56.70;;;;;;5090892;28;20048;-71
2022/07/08 01:23:34;;;;;;;1.58;0.10;;;20.10;56.30;;;;;;5091615;28;19916;-71
2022/07/08 01:26:01;;;;;;;1.20;0.20;;;20.10;56.40;;;;;;5090263;28;20403;-71
2022/07/08 01:28:27;;;;;;;1.73;0.20;;;20.10;56.40;;;;;;5090312;28;20510;-72
2022/07/08 01:30:53;;;;;;;1.25;0.20;;;20.10;56.40;;;;;;5090292;28;20040;-71
2022/07/08 01:33:19;;;;;;;1.15;0.30;;;20.10;56.40;;;;;;5090207;28;20032;-71
2022/07/08 01:35:45;;;;;;;1.05;0.30;;;20.10;56.40;;;;;;5090592;28;20136;-72
2022/07/08 01:38:10;;;;;;;1.10;0.10;;;20.10;56.40;;;;;;5090402;28;20119;-71
2022/07/08 01:40:36;;;;;;;2.97;0.28;;;20.10;56.40;;;;;;5090517;28;20135;-72
2022/07/08 01:43:02;;;;;;;1.30;0.20;;;20.00;56.40;;;;;;5090410;28;20056;-70
2022/07/08 01:45:28;;;;;;;2.20;0.25;;;20.00;56.40;;;;;;5123943;28;20044;-70
2022/07/08 01:47:54;;;;;;;2.50;0.20;;;20.00;56.50;;;;;;5091257;28;20032;-72
2022/07/08 01:50:20;;;;;;;2.15;0.28;;;20.00;56.40;;;;;;5090094;28;20074;-71
2022/07/08 01:52:46;;;;;;;3.53;0.50;;;20.00;56.40;;;;;;5092258;28;20044;-71
2022/07/08 01:55:12;;;;;;;3.22;0.30;;;20.00;56.50;;;;;;5128413;27;20046;-72
2022/07/08 01:57:38;;;;;;;1.95;0.40;;;20.00;56.40;;;;;;5093671;28;20415;-72
2022/07/08 02:00:05;;;;;;;1.83;0.30;;;20.00;56.40;;;;;;5094119;28;20046;-72
2022/07/08 02:02:31;;;;;;;2.70;0.40;;;20.00;56.50;;;;;;5093847;28;20040;-71
2022/07/08 02:05:00;;;;;;;0.50;0.10;;;20.00;56.50;;;;;;5127667;27;20127;-72
2022/07/08 02:07:26;;;;;;;1.98;0.10;;;20.00;57.30;;;;;;5095029;28;20067;-72
2022/07/08 02:09:51;;;;;;;1.38;0.22;;;20.00;56.50;;;;;;5094894;28;20518;-71
2022/07/08 02:12:20;;;;;;;1.77;0.30;;;20.00;56.50;;;;;;5094753;28;20472;-71
2022/07/08 02:14:49;;;;;;;2.00;0.30;;;20.00;56.50;;;;;;5093371;28;20040;-71
2022/07/08 02:17:16;;;;;;;1.67;0.20;;;20.00;56.60;;;;;;5127576;27;20055;-70
2022/07/08 02:19:42;;;;;;;0.63;0.13;;;20.00;56.60;;;;;;5093276;28;20051;-72
2022/07/08 02:22:09;;;;;;;1.33;0.22;;;20.00;56.60;;;;;;5093623;28;20036;-73
2022/07/08 02:24:39;;;;;;;1.98;0.20;;;20.00;56.60;;;;;;5093201;28;20545;-72
2022/07/08 02:27:05;;;;;;;1.40;0.20;;;20.00;56.70;;;;;;5093148;28;20052;-72
2022/07/08 02:29:31;;;;;;;1.70;0.45;;;20.00;56.60;;;;;;5093315;28;20032;-71
2022/07/08 02:31:57;;;;;;;0.90;0.17;;;20.00;56.60;;;;;;5094198;28;20153;-72
2022/07/08 02:34:23;;;;;;;1.13;0.30;;;20.00;56.70;;;;;;5092988;28;20536;-72
2022/07/08 02:36:49;;;;;;;1.45;0.20;;;19.90;56.60;;;;;;5093075;28;20487;-72
2022/07/08 02:39:14;;;;;;;0.93;0.15;;;19.90;56.60;;;;;;5092841;28;20044;-71
2022/07/08 02:41:41;;;;;;;2.22;0.20;;;19.90;56.60;;;;;;5092918;28;20040;-72
2022/07/08 02:44:07;;;;;;;1.20;0.17;;;19.90;56.60;;;;;;5094200;28;20085;-72
2022/07/08 02:46:33;;;;;;;1.58;0.20;;;19.90;56.60;;;;;;5092353;28;20492;-72
2022/07/08 02:48:59;;;;;;;0.80;0.17;;;19.90;56.70;;;;;;5094043;28;20086;-71
2022/07/08 02:51:25;;;;;;;2.50;0.20;;;19.90;56.70;;;;;;5093977;28;20036;-71
2022/07/08 02:53:51;;;;;;;2.40;0.38;;;19.90;56.70;;;;;;5092966;28;20032;-72
2022/07/08 02:56:16;;;;;;;1.40;0.20;;;19.90;56.70;;;;;;5092825;28;20054;-71
2022/07/08 02:58:42;;;;;;;1.40;0.20;;;19.90;56.80;;;;;;5092785;28;20082;-72
2022/07/08 03:01:08;;;;;;;2.08;0.15;;;19.90;57.50;;;;;;5092607;28;20040;-72
2022/07/08 03:03:33;;;;;;;1.15;0.10;;;19.90;56.80;;;;;;5092572;28;20105;-71
2022/07/08 03:05:59;;;;;;;1.65;0.10;;;19.90;56.80;;;;;;5092954;28;20082;-70
2022/07/08 03:08:24;;;;;;;1.75;0.20;;;19.80;56.80;;;;;;5093199;28;20036;-70
2022/07/08 03:10:50;;;;;;;2.33;0.52;;;19.90;56.80;;;;;;5093657;28;20040;-71
2022/07/08 03:13:16;;;;;;;1.42;0.20;;;19.80;56.80;;;;;;5092532;28;20055;-70
2022/07/08 03:15:42;;;;;;;1.27;0.10;;;19.80;56.80;;;;;;5092394;28;20040;-71
2022/07/08 03:18:08;;;;;;;1.70;0.40;;;19.80;56.80;;;;;;5092132;28;20040;-70
2022/07/08 03:20:34;;;;;;;0.88;0.20;;;19.80;56.80;;;;;;5092160;28;20039;-71
2022/07/08 03:23:00;;;;;;;1.48;0.20;;;19.80;56.90;;;;;;5092341;28;20043;-71
2022/07/08 03:25:26;;;;;;;2.28;0.22;;;19.80;56.80;;;;;;5093357;28;20040;-72
2022/07/08 03:27:51;;;;;;;2.88;0.30;;;19.80;56.90;;;;;;5092237;28;20442;-72
2022/07/08 03:30:17;;;;;;;1.10;0.20;;;19.80;56.90;;;;;;5091997;28;20040;-72
2022/07/08 03:32:42;;;;;;;3.40;0.40;;;19.80;56.90;;;;;;5091744;28;20040;-71
2022/07/08 03:35:11;;;;;;;2.45;0.30;;;19.80;56.90;;;;;;5093442;28;20102;-72
2022/07/08 03:37:42;;;;;;;0.90;0.22;;;19.80;56.90;;;;;;5108692;28;20126;-71
2022/07/08 03:42:55;;;;;;;1.45;0.20;;;19.80;56.90;;;;;;5091743;28;20056;-71
2022/07/08 03:45:21;;;;;;;3.13;0.20;;;19.80;56.90;;;;;;5091213;28;20468;-71
2022/07/08 03:47:47;;;;;;;2.67;0.30;;;19.80;56.90;;;;;;5092824;28;20044;-71
2022/07/08 03:50:13;;;;;;;1.38;0.17;;;19.80;56.90;;;;;;5091477;28;20097;-70
2022/07/08 03:52:39;;;;;;;1.98;0.30;;;19.70;56.90;;;;;;5091736;28;20403;-72
2022/07/08 03:55:06;;;;;;;1.70;0.10;;;19.70;56.90;;;;;;5091710;28;20032;-70
2022/07/08 03:57:31;;;;;;;2.05;0.22;;;19.70;56.90;;;;;;5091378;28;20044;-68
2022/07/08 03:59:57;;;;;;;2.60;0.28;;;19.70;56.90;;;;;;5091359;28;20039;-68
2022/07/08 04:02:23;;;;;;;0.90;0.10;;;19.70;57.00;;;;;;5108218;28;20127;-72
2022/07/08 04:04:49;;;;;;;1.67;0.13;;;19.70;56.90;;;;;;5091577;28;20043;-71
2022/07/08 04:07:15;;;;;;;1.00;0.20;;;19.70;57.00;;;;;;5091086;28;20039;-70
2022/07/08 04:09:41;;;;;;;3.92;0.40;;;19.70;57.00;;;;;;5092546;28;20055;-70
2022/07/08 04:12:07;;;;;;;2.53;0.15;;;19.70;57.00;;;;;;5091505;28;20036;-72
2022/07/08 04:14:33;;;;;;;1.95;0.20;;;19.70;57.00;;;;;;5091341;28;20089;-72
2022/07/08 04:16:58;;;;;;;1.88;0.10;;;19.70;57.00;;;;;;5090699;28;20070;-70
2022/07/08 04:19:24;;;;;;;1.42;0.20;;;19.70;57.00;;;;;;5091072;28;20039;-70
2022/07/08 04:21:50;;;;;;;1.17;0.20;;;19.70;57.00;;;;;;5091092;28;20047;-71
2022/07/08 04:24:15;;;;;;;1.70;0.20;;;19.70;56.90;;;;;;5091009;28;20059;-70
2022/07/08 04:26:41;;;;;;;1.35;0.30;;;19.70;57.00;;;;;;5090958;28;20043;-71
2022/07/08 04:29:06;;;;;;;1.73;0.10;;;19.70;57.00;;;;;;5091083;28;20043;-71
2022/07/08 04:31:32;;;;;;;1.63;0.20;;;19.70;57.00;;;;;;5090840;28;20398;-72
2022/07/08 04:33:58;;;;;;;2.35;0.30;;;19.70;57.00;;;;;;5074023;28;20089;-68
2022/07/08 04:36:24;;;;;;;1.42;0.20;;;19.70;57.00;;;;;;5091210;28;20036;-71
2022/07/08 04:38:50;;;;;;;0.60;0.10;;;19.70;57.00;;;;;;5090787;28;20376;-72
2022/07/08 04:41:15;;;;;;;2.38;0.20;;;19.70;57.00;;;;;;5090806;28;20169;-70
2022/07/08 04:43:43;;;;;;;2.80;0.20;;;19.70;57.70;;;;;;5090780;28;20067;-71
2022/07/08 04:46:10;;;;;;;1.05;0.28;;;19.70;57.00;;;;;;5078875;28;20055;-72
2022/07/08 04:48:36;;;;;;;0.82;0.10;;;19.70;57.00;;;;;;5073764;28;20047;-71
2022/07/08 04:51:02;;;;;;;1.13;0.28;;;19.70;57.00;;;;;;5073799;28;20063;-71
2022/07/08 04:53:28;;;;;;;1.98;0.20;;;19.70;57.00;;;;;;5091916;28;20436;-70
2022/07/08 04:55:54;;;;;;;2.05;0.20;;;19.70;57.00;;;;;;5091897;28;20132;-71
2022/07/08 04:58:22;;;;;;;1.67;0.55;;;19.70;57.00;;;;;;5073490;28;20123;-71
2022/07/08 05:00:48;;;;;;;0.85;0.10;;;19.70;57.00;;;;;;5074085;28;20426;-70
2022/07/08 05:03:14;;;;;;;3.40;0.60;;;19.70;57.00;;;;;;5091810;28;20052;-71
2022/07/08 05:05:39;;;;;;;1.83;0.25;;;19.70;57.00;;;;;;5091571;28;20101;-70
2022/07/08 05:08:05;;;;;;;1.58;0.17;;;19.70;57.00;;;;;;5073975;28;20044;-71
2022/07/08 05:10:34;;;;;;;0.85;0.10;;;19.70;57.00;;;;;;5073676;28;20413;-72
2022/07/08 05:13:01;;;;;;;0.95;0.20;;;19.70;57.00;;;;;;5073903;28;20044;-70
2022/07/08 05:15:27;;;;;;;1.88;0.30;;;19.70;57.00;;;;;;5073813;28;20067;-71
2022/07/08 05:17:53;;;;;;;3.20;0.10;;;19.70;56.90;;;;;;5073868;28;20439;-70
2022/07/08 05:20:19;;;;;;;1.55;0.45;;;19.70;56.90;;;;;;5073639;28;20119;-72
2022/07/08 05:22:45;;;;;;;1.23;0.10;;;19.70;56.90;;;;;;5074013;28;20048;-71
2022/07/08 05:25:11;;;;;;;2.00;0.20;;;19.70;57.00;;;;;;5073738;28;20541;-71
2022/07/08 05:27:38;;;;;;;1.75;0.10;;;19.70;57.00;;;;;;5073076;28;20037;-71
2022/07/08 05:30:06;;;;;;;0.68;0.10;;;19.70;56.90;;;;;;5072579;28;20090;-69
2022/07/08 05:32:31;;;;;;;1.30;0.10;;;19.70;57.00;;;;;;5055162;28;20044;-69
2022/07/08 05:34:57;;;;;;;1.42;0.55;;;19.70;56.90;;;;;;5053339;28;20404;-68
2022/07/08 05:37:23;;;;;;;0.90;0.20;;;19.70;57.00;;;;;;5052890;28;20036;-68
2022/07/08 05:39:49;;;;;;;1.85;0.20;;;19.80;57.10;;;;;;5056096;28;20040;-68
2022/07/08 05:42:14;;;;;;;4.63;0.20;;;19.80;57.50;;;;;;5054968;28;20047;-68
2022/07/08 05:44:40;;;;;;;3.25;0.57;;;19.80;57.00;;;;;;5055480;28;20036;-68
2022/07/08 05:47:08;;;;;;;2.83;0.30;;;19.90;57.10;;;;;;5055178;28;20373;-68
2022/07/08 05:49:35;;;;;;;2.78;0.20;;;19.90;57.10;;;;;;5073125;28;20056;-68
2022/07/08 05:52:02;;;;;;;3.85;0.30;;;19.90;57.10;;;;;;5055133;28;20036;-68
2022/07/08 05:54:28;;;;;;;2.63;0.20;;;19.90;57.10;;;;;;5054269;28;20079;-69
2022/07/08 05:56:54;;;;;;;1.42;0.32;;;19.90;57.10;;;;;;5066028;28;20512;-68
2022/07/08 05:59:19;;;;;;;1.70;0.30;;;19.90;57.20;;;;;;5047939;28;20044;-68
2022/07/08 06:01:45;;;;;;;5.28;0.88;;;20.00;57.30;;;;;;5052194;28;20037;-68
2022/07/08 06:04:11;;;;;;;3.00;0.20;;;20.00;57.20;;;;;;5052587;28;20047;-68
2022/07/08 06:06:37;;;;;;;4.78;0.55;;;20.00;57.10;;;;;;5051374;28;20045;-68
2022/07/08 06:09:03;;;;;;;4.53;0.30;;;20.10;57.20;;;;;;5050921;28;20097;-68
2022/07/08 06:11:29;;;;;;;4.25;0.43;;;20.10;57.20;;;;;;5025946;28;20527;-69
2022/07/08 06:13:55;;;;;;;3.53;0.38;;;20.10;57.20;;;;;;5040599;28;20041;-69
2022/07/08 06:16:20;;;;;;;3.70;0.40;;;20.20;57.30;;;;;;5039808;28;20036;-68
2022/07/08 06:18:46;;;;;;;5.72;0.68;;;20.20;57.30;;;;;;5056472;28;20499;-68
2022/07/08 06:21:12;;;;;;;5.40;0.60;;;20.20;57.20;;;;;;5053454;28;20041;-69
2022/07/08 06:23:38;;;;;;;3.05;0.57;;;20.20;57.40;;;;;;5039073;28;20063;-71
2022/07/08 06:26:04;;;;;;;7.22;0.55;;;20.20;57.60;;;;;;5030791;28;20503;-70
2022/07/08 06:28:30;;;;;;;4.03;0.30;;;20.20;57.50;;;;;;5037618;28;20086;-71
2022/07/08 06:30:55;;;;;;;5.40;0.50;;;20.30;57.50;;;;;;5055789;28;20049;-70
2022/07/08 06:33:21;;;;;;;3.67;0.38;;;20.20;57.50;;;;;;5043856;28;20687;-70
2022/07/08 06:35:47;;;;;;;4.93;0.40;;;20.20;57.50;;;;;;5067923;28;20055;-69
2022/07/08 06:38:12;;;;;;;4.63;0.40;;;20.30;57.70;;;;;;5046862;28;20040;-69
2022/07/08 06:40:38;;;;;;;6.25;0.45;;;20.30;57.80;;;;;;5071847;28;20505;-70
2022/07/08 06:43:04;;;;;;;3.58;0.60;;;20.30;57.90;;;;;;5056210;28;20036;-70
2022/07/08 06:45:31;;;;;;;7.43;1.38;;;20.40;58.00;;;;;;5081016;28;20052;-70
2022/07/08 06:47:58;;;;;;;7.75;0.40;;;20.40;58.00;;;;;;5086859;28;20046;-72
2022/07/08 06:50:24;;;;;;;9.55;1.52;;;20.40;58.30;;;;;;5102842;28;20272;-73
2022/07/08 06:52:49;;;;;;;6.38;0.47;;;20.50;58.50;;;;;;5090287;28;20043;-73
2022/07/08 06:55:15;;;;;;;5.60;0.40;;;20.50;58.50;;;;;;5078599;28;20059;-71
2022/07/08 06:57:41;;;;;;;5.85;0.57;;;20.50;58.60;;;;;;5111442;27;20189;-74
2022/07/08 07:00:07;;;;;;;2.55;0.40;;;20.60;58.60;;;;;;5084787;28;20046;-73
2022/07/08 07:02:33;;;;;;;8.02;0.70;;;20.60;58.40;;;;;;5103086;28;20046;-70
2022/07/08 07:05:00;;;;;;;5.55;0.32;;;20.60;58.40;;;;;;5082779;28;20043;-71
2022/07/08 07:07:28;;;;;;;6.90;0.95;;;20.60;58.50;;;;;;5080908;28;20040;-75
2022/07/08 07:09:55;;;;;;;6.03;0.47;;;20.70;58.50;;;;;;5082799;28;20059;-74
2022/07/08 07:12:20;;;;;;;5.35;0.50;;;20.70;58.50;;;;;;5083920;28;20486;-68
2022/07/08 07:14:46;;;;;;;4.30;0.63;;;20.80;58.50;;;;;;5114708;27;20071;-79
2022/07/08 07:17:17;;;;;;;7.20;0.60;;;20.80;58.30;;;;;;5082277;28;20130;-72
2022/07/08 07:19:44;;;;;;;8.85;1.00;;;20.80;58.30;;;;;;5080835;28;20126;-75
2022/07/08 07:22:10;;;;;;;5.35;0.50;;;20.80;58.30;;;;;;5082319;28;20039;-69
2022/07/08 07:24:35;;;;;;;3.78;0.38;;;20.80;58.40;;;;;;5114942;27;20371;-74
2022/07/08 07:27:01;;;;;;;4.45;0.40;;;20.90;58.50;;;;;;5076653;28;20038;-70
2022/07/08 07:29:27;;;;;;;7.28;0.52;;;20.90;58.30;;;;;;5098579;28;20023;-71
2022/07/08 07:31:53;;;;;;;9.55;1.30;;;20.90;58.30;;;;;;5084618;28;20039;-70
2022/07/08 07:34:19;;;;;;;7.55;0.40;;;21.00;58.60;;;;;;5100330;28;20084;-70
2022/07/08 07:36:45;;;;;;;7.45;0.80;;;21.00;58.90;;;;;;5085256;28;20391;-76
2022/07/08 07:39:11;;;;;;;5.40;0.38;;;21.10;58.90;;;;;;5078165;28;20058;-74
2022/07/08 07:41:37;;;;;;;4.55;0.30;;;21.10;58.90;;;;;;5074736;28;20390;-76
2022/07/08 07:44:04;;;;;;;6.20;0.60;;;21.10;58.70;;;;;;5113062;27;20093;-74
2022/07/08 07:46:30;;;;;;;7.80;0.40;;;21.10;58.80;;;;;;5076917;28;20044;-73
2022/07/08 07:48:56;;;;;;;3.92;0.30;;;21.20;58.80;;;;;;5114060;27;20040;-72
2022/07/08 07:51:22;;;;;;;3.42;0.30;;;21.20;58.70;;;;;;5096701;28;20044;-73
2022/07/08 07:53:48;;;;;;;2.40;0.22;;;21.20;58.80;;;;;;5115730;27;20039;-71
2022/07/08 07:56:14;;;;;;;2.88;0.45;;;21.30;58.80;;;;;;5098347;28;20050;-73
2022/07/08 07:58:40;;;;;;;6.57;0.60;;;21.30;58.80;;;;;;5080873;28;20418;-72
2022/07/08 08:01:06;;;;;;;2.85;0.65;;;21.30;58.80;;;;;;5076468;28;20775;-72
2022/07/08 08:03:35;;;;;;;5.07;0.88;;;21.30;58.80;;;;;;5112277;27;20460;-72
2022/07/08 08:06:01;;;;;;;2.90;0.38;;;21.30;59.50;;;;;;5096340;28;20054;-69
2022/07/08 08:08:31;;;;;;;1.52;0.35;;;21.30;58.70;;;;;;5078927;28;20039;-73
2022/07/08 08:10:58;;;;;;;5.40;0.40;;;21.30;58.70;;;;;;5078369;28;20086;-68
2022/07/08 08:13:24;;;;;;;9.07;0.80;;;21.40;58.70;;;;;;5097176;28;20099;-70
2022/07/08 08:15:50;;;;;;;4.63;0.32;;;21.40;58.80;;;;;;5070679;28;20620;-71
2022/07/08 08:18:16;;;;;;;3.40;0.38;;;21.40;58.90;;;;;;5076433;28;20639;-69
2022/07/08 08:20:42;;;;;;;3.30;0.25;;;21.40;59.10;;;;;;5080701;28;20047;-68
2022/07/08 08:23:09;;;;;;;3.13;0.30;;;21.40;59.00;;;;;;5113044;27;20044;-68
2022/07/08 08:25:35;;;;;;;2.50;0.40;;;21.40;59.00;;;;;;5076568;28;20036;-69
2022/07/08 08:28:00;;;;;;;4.35;1.00;;;21.40;59.00;;;;;;5078683;28;20047;-69
2022/07/08 08:30:26;;;;;;;3.00;0.55;;;21.50;59.00;;;;;;5080046;28;20067;-69
2022/07/08 08:32:52;;;;;;;3.20;0.20;;;21.50;59.00;;;;;;5077591;28;20113;-68
2022/07/08 08:35:18;;;;;;;3.10;0.30;;;21.40;58.70;;;;;;5096797;28;20570;-67
2022/07/08 08:37:46;;;;;;;5.55;0.75;;;21.40;58.70;;;;;;5077204;28;20032;-68
2022/07/08 08:40:13;;;;;;;2.03;0.50;;;21.40;58.70;;;;;;5076336;28;20039;-68
2022/07/08 08:42:40;;;;;;;3.42;0.22;;;21.40;58.60;;;;;;5080647;28;20080;-68
2022/07/08 08:45:06;;;;;;;4.15;0.30;;;21.50;58.70;;;;;;5080158;28;20042;-68
2022/07/08 08:47:34;;;;;;;5.00;0.45;;;21.50;58.60;;;;;;5099583;28;20062;-70
2022/07/08 08:52:50;;;;;;;4.40;0.43;;;21.40;58.80;;;;;;5084209;28;20517;-72
2022/07/08 08:55:26;;;;;;;4.65;1.20;;;21.50;58.90;;;;;;5115582;28;20522;-72
2022/07/08 08:57:54;;;;;;;6.90;0.22;;;21.50;58.70;;;;;;5109193;28;20071;-73
2022/07/08 09:00:20;;;;;;;3.42;0.43;;;21.50;58.60;;;;;;5110239;28;20174;-71
2022/07/08 09:02:46;;;;;;;10.77;0.52;;;21.50;58.60;;;;;;5098463;28;20038;-71
2022/07/08 09:05:13;;;;;;;2.95;0.40;;;21.60;58.70;;;;;;5081341;28;20495;-72
2022/07/08 09:07:39;;;;;;;4.05;0.55;;;21.60;58.50;;;;;;5116908;27;20502;-71
2022/07/08 09:10:06;;;;;;;4.82;0.30;;;21.60;58.40;;;;;;5087356;28;20038;-71
2022/07/08 09:12:34;;;;;;;7.38;0.50;;;21.70;58.40;;;;;;5114901;27;20157;-71
2022/07/08 09:15:01;;;;;;;5.22;1.58;;;21.60;58.30;;;;;;5071408;28;20655;-71
2022/07/08 09:17:27;;;;;;;5.47;0.40;;;21.70;58.40;;;;;;5105182;27;20521;-71
2022/07/08 09:19:53;;;;;;;4.47;0.30;;;21.70;58.30;;;;;;5072225;28;20135;-69
2022/07/08 09:22:23;;;;;;;7.82;0.57;;;21.70;58.20;;;;;;5072193;28;20371;-71
2022/07/08 09:24:49;;;;;;;8.02;0.63;;;21.70;58.40;;;;;;5108702;27;20055;-72
2022/07/08 09:27:15;;;;;;;6.22;0.70;;;21.80;58.70;;;;;;5080632;28;20547;-72
2022/07/08 09:29:58;;;;;;;6.00;0.73;;;21.80;58.80;;;;;;5083318;28;20050;-71
2022/07/08 09:32:24;;;;;;;5.60;0.43;;;21.80;59.00;;;;;;5075630;28;20066;-71
2022/07/08 09:34:50;;;;;;;10.57;0.30;;;21.80;59.00;;;;;;5100019;28;20124;-71
2022/07/08 09:37:17;;;;;;;5.25;0.38;;;21.90;59.30;;;;;;5115996;27;20101;-69
2022/07/08 09:39:44;;;;;;;5.65;0.98;;;21.80;59.50;;;;;;5097642;28;20088;-72
2022/07/08 09:42:10;;;;;;;8.00;0.75;;;21.90;59.70;;;;;;5077462;28;20044;-71
2022/07/08 09:44:37;;;;;;;2.85;0.50;;;21.90;59.90;;;;;;5092990;28;20047;-70
2022/07/08 09:47:11;;;;;;;5.22;0.38;;;21.90;60.00;;;;;;5072432;28;20130;-69
2022/07/08 09:49:41;;;;;;;3.17;0.47;;;21.90;60.30;;;;;;5111042;27;20087;-74
2022/07/08 09:52:08;;;;;;;6.75;0.30;;;21.90;60.20;;;;;;5109597;27;20407;-72
2022/07/08 09:54:34;;;;;;;5.25;0.50;;;21.90;60.30;;;;;;5095267;28;20318;-71
2022/07/08 09:57:03;;;;;;;2.60;0.30;;;22.00;60.30;;;;;;5085459;28;20513;-75
2022/07/08 09:59:30;;;;;;;3.97;0.52;;;22.00;60.20;;;;;;5096546;28;20125;-75
2022/07/08 10:01:57;;;;;;;6.13;1.33;;;22.00;60.20;;;;;;5094060;28;20046;-74
2022/07/08 10:04:24;;;;;;;3.90;0.20;;;22.00;60.70;;;;;;5080886;28;20046;-75
2022/07/08 10:06:50;;;;;;;3.00;0.20;;;22.00;59.80;;;;;;5079735;28;20152;-75
2022/07/08 10:09:17;;;;;;;4.25;0.30;;;22.10;59.70;;;;;;5083047;28;20039;-72
2022/07/08 10:11:47;;;;;;;3.88;0.38;;;22.10;59.50;;;;;;5099081;28;20043;-73
2022/07/08 10:14:13;;;;;;;5.15;0.75;;;22.10;59.40;;;;;;5095548;28;20100;-72
2022/07/08 10:16:40;;;;;;;2.47;0.20;;;22.10;59.30;;;;;;5083565;28;20039;-70
2022/07/08 10:19:12;;;;;;;3.25;0.50;;;22.10;59.20;;;;;;5081135;28;20040;-71
2022/07/08 10:21:41;;;;;;;3.95;0.45;;;22.10;59.10;;;;;;5099916;28;20202;-71
2022/07/08 10:24:17;;;;;;;3.10;0.30;;;22.20;59.30;;;;;;5116881;27;20052;-71
2022/07/08 10:26:44;;;;;;;4.43;0.43;;;22.20;59.40;;;;;;5104850;28;20048;-71
2022/07/08 10:29:11;;;;;;;5.05;0.32;;;22.20;59.30;;;;;;5081717;28;20043;-71
2022/07/08 10:31:42;;;;;;;1.73;0.20;;;22.20;59.20;;;;;;5079900;28;20065;-71
2022/07/08 10:34:08;;;;;;;4.78;0.32;;;22.20;59.20;;;;;;5119084;27;20080;-71
2022/07/08 10:36:45;;;;;;;2.58;0.32;;;22.20;59.20;;;;;;5106012;28;20047;-70
2022/07/08 10:39:12;;;;;;;4.25;0.55;;;22.20;59.20;;;;;;5080192;28;20040;-71
2022/07/08 10:41:38;;;;;;;2.83;0.30;;;22.20;59.20;;;;;;5084016;28;20044;-72
2022/07/08 10:44:12;;;;;;;3.63;0.30;;;22.20;59.10;;;;;;5102051;27;20036;-73
2022/07/08 10:46:50;;;;;;;3.25;0.40;;;22.20;59.20;;;;;;5102060;28;20127;-75
2022/07/08 10:49:17;;;;;;;2.55;0.38;;;22.20;59.90;;;;;;5084980;28;20397;-74
2022/07/08 10:51:43;;;;;;;6.18;0.68;;;22.20;59.90;;;;;;5088661;28;20196;-74
2022/07/08 10:54:23;;;;;;;1.80;0.30;;;22.30;60.00;;;;;;5078213;28;20433;-73
2022/07/08 10:59:35;;;;;;;3.85;0.43;;;22.30;59.80;;;;;;5059570;27;21194;-72
2022/07/08 11:02:06;;;;;;;3.95;0.40;;;22.30;59.50;;;;;;5053711;28;20076;-73
2022/07/08 11:12:41;;;;;;;5.18;0.65;;;22.30;59.70;;;;;;5059498;27;20428;-74
2022/07/08 11:18:04;;;;;;;2.92;0.30;;;22.30;59.00;;;;;;5069486;28;20912;-72
2022/07/08 11:20:31;;;;;;;5.25;0.55;;;22.30;59.00;;;;;;5049461;28;20080;-73
2022/07/08 11:22:57;;;;;;;5.13;0.30;;;22.30;59.00;;;;;;5055692;28;20044;-73
2022/07/08 11:25:24;;;;;;;4.47;0.50;;;22.30;58.90;;;;;;5070810;28;20037;-72
2022/07/08 11:27:50;;;;;;;6.60;0.50;;;22.30;58.90;;;;;;5059350;28;20045;-72
2022/07/08 11:30:16;;;;;;;4.03;0.30;;;22.30;58.80;;;;;;5074477;28;20511;-72
2022/07/08 11:32:47;;;;;;;2.13;0.40;;;22.30;58.70;;;;;;5044201;28;20065;-71
2022/07/08 11:35:13;;;;;;;3.35;0.60;;;22.20;58.80;;;;;;5045884;28;20048;-72
2022/07/08 11:37:41;;;;;;;1.88;0.30;;;22.20;58.60;;;;;;5067291;28;20060;-70
2022/07/08 11:40:08;;;;;;;3.78;0.30;;;22.20;58.60;;;;;;5067202;28;20049;-72
2022/07/08 11:42:37;;;;;;;3.53;0.60;;;22.20;58.60;;;;;;5048406;28;20383;-73
2022/07/08 11:45:05;;;;;;;3.50;0.38;;;22.20;58.50;;;;;;5070599;28;20044;-71
2022/07/08 11:47:30;;;;;;;4.20;0.65;;;22.20;58.50;;;;;;5072108;28;20045;-70
2022/07/08 11:49:56;;;;;;;1.85;0.32;;;22.20;58.50;;;;;;5059137;28;20045;-70
2022/07/08 11:52:22;;;;;;;1.80;0.45;;;22.10;58.40;;;;;;5051845;28;20055;-71
2022/07/08 11:54:48;;;;;;;2.88;0.30;;;22.10;58.40;;;;;;5058896;28;20109;-71
2022/07/08 11:57:16;;;;;;;2.80;0.30;;;22.10;58.40;;;;;;5058153;28;20037;-71
2022/07/08 11:59:45;;;;;;;2.30;0.45;;;22.10;58.40;;;;;;5057312;28;20047;-70
2022/07/08 12:02:11;;;;;;;2.70;0.30;;;22.10;58.40;;;;;;5048097;28;21328;-71
2022/07/08 12:04:37;;;;;;;3.90;0.60;;;22.10;58.40;;;;;;5055138;28;20047;-71
2022/07/08 12:07:19;;;;;;;3.30;0.20;;;22.10;58.40;;;;;;5050014;28;20116;-70
2022/07/08 12:09:54;;;;;;;3.03;0.75;;;22.10;58.40;;;;;;5058113;28;20044;-70
2022/07/08 12:12:27;;;;;;;1.70;0.30;;;22.10;58.30;;;;;;5071906;28;20675;-71
2022/07/08 12:14:53;;;;;;;2.35;0.55;;;22.00;58.30;;;;;;5054686;28;20324;-70
2022/07/08 12:17:28;;;;;;;3.55;0.22;;;22.10;58.40;;;;;;5072683;28;20124;-70
2022/07/08 12:19:57;;;;;;;2.78;0.30;;;22.10;58.40;;;;;;5056246;28;20335;-72
2022/07/08 12:25:23;;;;;;;4.32;0.80;;;22.10;58.40;;;;;;5084030;27;20410;-70
2022/07/08 12:27:58;;;;;;;2.13;0.30;;;22.00;58.30;;;;;;5049685;28;20431;-71
2022/07/08 12:30:27;;;;;;;3.08;0.30;;;22.00;58.30;;;;;;5059230;28;20055;-70
2022/07/08 12:32:59;;;;;;;0.98;0.30;;;22.00;58.30;;;;;;5050938;28;20448;-68
2022/07/08 12:35:29;;;;;;;0.80;0.20;;;22.00;58.40;;;;;;5048241;28;20279;-70
2022/07/08 12:40:43;;;;;;;1.08;0.40;;;22.00;58.40;;;;;;5104085;27;20911;-69
2022/07/08 12:43:11;;;;;;;2.85;0.68;;;22.00;58.40;;;;;;5105079;28;20089;-68
2022/07/08 12:45:37;;;;;;;1.95;0.30;;;22.00;58.40;;;;;;5110084;28;20247;-69
2022/07/08 12:48:03;;;;;;;2.13;0.32;;;22.00;58.40;;;;;;5098811;28;20522;-70
2022/07/08 12:50:31;;;;;;;1.42;0.30;;;22.00;58.30;;;;;;5104947;28;20435;-69
2022/07/08 12:52:58;;;;;;;1.10;0.20;;;22.10;58.30;;;;;;5109397;28;20063;-68
2022/07/08 12:55:24;;;;;;;2.13;0.45;;;22.10;58.30;;;;;;5114707;27;20398;-70
2022/07/08 12:57:49;;;;;;;2.22;0.30;;;22.00;58.20;;;;;;5119596;28;20043;-70
2022/07/08 13:00:17;;;;;;;2.83;0.50;;;22.00;58.30;;;;;;5118551;28;20234;-70
2022/07/08 13:02:44;;;;;;;2.35;0.47;;;22.10;58.20;;;;;;5121116;27;20036;-71
2022/07/08 13:05:10;;;;;;;1.33;0.20;;;22.00;58.30;;;;;;5119647;28;20058;-70
2022/07/08 13:07:35;;;;;;;3.03;0.40;;;22.00;58.20;;;;;;5116420;28;20074;-70
2022/07/08 13:10:02;;;;;;;2.25;0.32;;;22.00;58.30;;;;;;5101469;28;20123;-70